Time;durP1;ratioP1;P1;durP2;ratioP2;P2;SDS_P1;SDS_P2;PMS_P1;PMS_P2;Temp;Humidity;BMP_temperature;BMP_pressure;BME280_temperature;BME280_humidity;BME280_pressure;Samples;Min_cycle;Max_cycle;Signal;HPM_P1;HPM_P2
2023/06/04 00:00:34;;;;;;;4.88;0.70;;;;;;;16.88;37.85;100531.75;10282001;28;20062;-65
2023/06/04 00:05:35;;;;;;;2.53;1.08;;;;;;;16.80;37.90;100530.91;10281701;28;20035;-65
2023/06/04 00:10:39;;;;;;;3.53;0.70;;;;;;;16.70;38.37;100525.06;10268635;28;20042;-65
2023/06/04 00:15:41;;;;;;;3.15;0.40;;;;;;;16.60;38.47;100535.53;10284191;28;20054;-65
2023/06/04 00:20:42;;;;;;;1.80;0.60;;;;;;;16.52;38.81;100525.72;10281341;28;20047;-63
2023/06/04 00:25:44;;;;;;;4.00;0.50;;;;;;;16.43;39.00;100518.88;10284420;28;20050;-64
2023/06/04 00:30:45;;;;;;;1.45;0.40;;;;;;;16.37;38.98;100522.41;10285642;28;20050;-66
2023/06/04 00:35:47;;;;;;;1.20;0.50;;;;;;;16.29;39.17;100531.63;10283998;28;20046;-66
2023/06/04 00:40:48;;;;;;;2.25;0.50;;;;;;;16.23;39.11;100527.84;10285456;28;20045;-60
2023/06/04 00:45:50;;;;;;;3.03;0.40;;;;;;;16.17;39.47;100525.13;10285492;28;20047;-67
2023/06/04 00:50:52;;;;;;;2.90;0.60;;;;;;;16.07;39.76;100530.97;10284281;28;20442;-69
2023/06/04 00:55:53;;;;;;;2.78;0.60;;;;;;;16.01;39.96;100537.22;10278875;28;20053;-66
2023/06/04 01:00:58;;;;;;;2.28;0.60;;;;;;;15.94;39.98;100531.81;10285383;28;20050;-68
2023/06/04 01:06:09;;;;;;;1.27;0.55;;;;;;;15.89;40.33;100530.75;10284252;28;20149;-68
2023/06/04 01:11:11;;;;;;;2.55;0.40;;;;;;;15.79;40.45;100529.25;10284492;28;20055;-68
2023/06/04 01:16:14;;;;;;;1.73;0.40;;;;;;;15.72;40.65;100533.81;10279761;28;20494;-68
2023/06/04 01:21:18;;;;;;;1.80;0.50;;;;;;;15.66;40.81;100530.06;10282534;28;20093;-68
2023/06/04 01:26:20;;;;;;;2.92;0.50;;;;;;;15.62;40.61;100531.50;10281152;28;20821;-68
2023/06/04 01:31:23;;;;;;;3.13;0.45;;;;;;;15.53;41.33;100531.91;10280165;28;20074;-68
2023/06/04 01:36:24;;;;;;;2.70;0.68;;;;;;;15.38;41.49;100529.34;10277890;28;20490;-64
2023/06/04 01:41:26;;;;;;;5.00;0.75;;;;;;;15.17;42.25;100535.72;10283226;28;20105;-67
2023/06/04 01:46:27;;;;;;;1.38;0.65;;;;;;;15.04;42.39;100528.38;10280079;28;20395;-68
2023/06/04 01:51:29;;;;;;;1.08;0.60;;;;;;;14.90;42.79;100529.34;10281432;28;20074;-66
2023/06/04 01:56:30;;;;;;;1.83;0.50;;;;;;;14.81;43.04;100532.22;10282918;28;20053;-68
2023/06/04 02:01:31;;;;;;;1.17;0.50;;;;;;;14.68;43.13;100532.97;10283047;28;20058;-67
2023/06/04 02:06:33;;;;;;;3.05;0.45;;;;;;;14.67;43.44;100535.84;10287617;28;20382;-66
2023/06/04 02:11:35;;;;;;;1.75;0.80;;;;;;;14.62;43.54;100532.94;10291898;28;20065;-65
2023/06/04 02:16:37;;;;;;;1.33;0.57;;;;;;;14.55;43.49;100540.94;10291645;28;20077;-66
2023/06/04 02:21:39;;;;;;;4.65;0.50;;;;;;;14.45;43.58;100530.50;10292323;28;20394;-66
2023/06/04 02:26:41;;;;;;;2.75;0.60;;;;;;;14.43;43.92;100529.84;10289211;28;20054;-68
2023/06/04 02:31:42;;;;;;;3.10;0.35;;;;;;;14.45;44.00;100540.47;10290088;28;20054;-66
2023/06/04 02:36:48;;;;;;;1.17;0.60;;;;;;;14.42;43.65;100536.28;10290459;28;20051;-68
2023/06/04 02:41:49;;;;;;;2.67;0.50;;;;;;;14.39;43.98;100536.66;10287566;28;20125;-68
2023/06/04 02:46:51;;;;;;;2.20;0.70;;;;;;;14.36;44.20;100534.38;10288437;28;20078;-65
2023/06/04 02:51:52;;;;;;;4.20;0.68;;;;;;;14.31;44.15;100536.00;10286792;28;20135;-66
2023/06/04 02:56:53;;;;;;;1.45;0.70;;;;;;;14.22;44.42;100536.13;10287317;28;20057;-66
2023/06/04 03:01:55;;;;;;;2.03;0.70;;;;;;;14.22;44.44;100543.41;10290138;28;20047;-66
2023/06/04 03:06:57;;;;;;;3.47;1.20;;;;;;;14.18;44.57;100534.84;10295731;28;20069;-64
2023/06/04 03:12:03;;;;;;;4.63;0.88;;;;;;;14.16;44.56;100526.09;10286906;28;20390;-67
2023/06/04 03:17:10;;;;;;;2.38;1.17;;;;;;;14.12;44.54;100529.38;10289617;28;20039;-67
2023/06/04 03:22:11;;;;;;;4.45;1.20;;;;;;;14.17;44.80;100532.34;10284880;28;20039;-68
2023/06/04 03:27:13;;;;;;;2.47;1.00;;;;;;;14.11;44.94;100533.13;10288825;28;20047;-68
2023/06/04 03:32:15;;;;;;;4.97;1.00;;;;;;;14.00;44.96;100529.91;10287073;28;20360;-68
2023/06/04 03:37:17;;;;;;;2.95;0.75;;;;;;;13.92;45.45;100530.06;10287941;28;20050;-68
2023/06/04 03:42:19;;;;;;;3.97;1.27;;;;;;;13.90;45.39;100537.50;10285898;28;20038;-68
2023/06/04 03:47:20;;;;;;;2.55;0.60;;;;;;;13.86;45.42;100538.91;10286849;28;20038;-68
2023/06/04 03:52:22;;;;;;;1.98;0.60;;;;;;;13.94;45.63;100544.22;10284944;28;20523;-68
2023/06/04 03:57:23;;;;;;;1.75;0.50;;;;;;;14.02;45.34;100545.91;10287195;28;20581;-68
2023/06/04 04:02:25;;;;;;;2.58;0.95;;;;;;;14.04;45.50;100539.31;10283362;28;20051;-68
2023/06/04 04:07:27;;;;;;;4.50;0.55;;;;;;;14.08;45.17;100534.34;10283105;28;20162;-67
2023/06/04 04:12:28;;;;;;;1.33;0.52;;;;;;;14.06;45.59;100541.84;10282035;28;20050;-67
2023/06/04 04:17:30;;;;;;;2.20;0.50;;;;;;;14.14;45.52;100544.38;10285750;28;20050;-68
2023/06/04 04:22:32;;;;;;;4.25;0.50;;;;;;;14.21;45.24;100545.25;10283408;28;20042;-66
2023/06/04 04:27:38;;;;;;;2.72;0.60;;;;;;;14.33;45.40;100548.28;10267368;28;20050;-67
2023/06/04 04:32:48;;;;;;;1.27;0.70;;;;;;;14.38;45.68;100548.53;10285597;28;20053;-67
2023/06/04 04:37:50;;;;;;;4.13;0.40;;;;;;;14.39;45.51;100546.66;10258209;28;20416;-68
2023/06/04 04:42:51;;;;;;;2.03;0.60;;;;;;;14.51;45.64;100552.38;10284176;28;20043;-69
2023/06/04 04:47:53;;;;;;;2.38;0.43;;;;;;;14.60;45.80;100549.34;10281970;28;20058;-69
2023/06/04 04:52:54;;;;;;;4.10;0.98;;;;;;;14.70;45.62;100551.72;10285433;28;20070;-61
2023/06/04 04:57:55;;;;;;;3.05;0.50;;;;;;;14.81;45.44;100553.88;10281626;28;20370;-61
2023/06/04 05:02:57;;;;;;;2.45;0.57;;;;;;;14.95;45.39;100557.50;10286423;28;20061;-59
2023/06/04 05:07:58;;;;;;;1.88;0.47;;;;;;;15.12;45.31;100562.56;10280740;28;20043;-64
2023/06/04 05:13:04;;;;;;;1.35;0.45;;;;;;;15.22;45.34;100555.72;10284644;28;20075;-60
2023/06/04 05:18:07;;;;;;;2.13;0.60;;;;;;;15.38;44.90;100559.13;10282690;28;20047;-60
2023/06/04 05:23:09;;;;;;;0.82;0.50;;;;;;;15.60;44.75;100576.94;10287663;28;20050;-63
2023/06/04 05:28:12;;;;;;;1.80;0.47;;;;;;;15.80;44.45;100582.44;10281695;28;20061;-63
2023/06/04 05:33:20;;;;;;;3.33;0.68;;;;;;;16.00;44.37;100585.19;10284731;28;20045;-61
2023/06/04 05:38:25;;;;;;;3.88;0.40;;;;;;;16.21;44.05;100586.06;10266111;28;20039;-62
2023/06/04 05:43:27;;;;;;;2.70;0.40;;;;;;;16.35;43.57;100587.75;10285753;28;20039;-61
2023/06/04 05:48:28;;;;;;;0.85;0.50;;;;;;;16.52;43.31;100581.91;10281753;28;20438;-62
2023/06/04 05:53:29;;;;;;;5.30;0.40;;;;;;;16.62;42.89;100591.28;10283240;28;20082;-62
2023/06/04 05:58:34;;;;;;;0.88;0.47;;;;;;;16.85;42.90;100584.63;10280809;28;20050;-61
2023/06/04 06:03:36;;;;;;;2.03;0.47;;;;;;;17.00;42.30;100595.22;10284182;28;20057;-60
2023/06/04 06:08:38;;;;;;;2.25;0.60;;;;;;;17.13;42.03;100599.81;10285711;28;20495;-60
2023/06/04 06:13:40;;;;;;;1.00;0.50;;;;;;;17.18;41.74;100600.84;10277869;28;20102;-61
2023/06/04 06:18:41;;;;;;;2.83;0.40;;;;;;;17.36;41.32;100604.75;10280867;28;20054;-60
2023/06/04 06:23:42;;;;;;;1.88;0.50;;;;;;;17.48;41.06;100603.03;10281754;28;20038;-63
2023/06/04 06:28:44;;;;;;;2.20;0.50;;;;;;;17.70;40.70;100600.84;10278282;28;20081;-62
2023/06/04 06:33:46;;;;;;;3.67;0.40;;;;;;;17.84;40.36;100605.19;10282313;28;20066;-60
2023/06/04 06:38:47;;;;;;;1.25;0.43;;;;;;;17.98;39.78;100610.53;10285307;28;20046;-62
2023/06/04 06:43:49;;;;;;;4.65;0.40;;;;;;;18.20;39.58;100613.75;10278254;28;20050;-60
2023/06/04 06:48:50;;;;;;;2.42;0.40;;;;;;;18.34;39.37;100618.03;10279985;28;20054;-60
2023/06/04 06:53:51;;;;;;;2.35;0.40;;;;;;;18.54;38.96;100615.19;10290849;28;20051;-60
2023/06/04 06:58:53;;;;;;;1.25;0.50;;;;;;;18.72;38.81;100617.13;10287326;28;20477;-62
2023/06/04 07:03:54;;;;;;;4.28;0.60;;;;;;;18.99;38.80;100623.16;10286124;28;20047;-60
2023/06/04 07:08:56;;;;;;;1.33;0.50;;;;;;;19.12;38.28;100627.66;10289572;28;20237;-60
2023/06/04 07:13:57;;;;;;;1.92;0.43;;;;;;;19.33;37.88;100634.56;10287536;28;20042;-60
2023/06/04 07:19:01;;;;;;;2.95;0.50;;;;;;;19.49;37.98;100629.53;10288657;28;20044;-60
2023/06/04 07:24:03;;;;;;;1.95;0.40;;;;;;;19.53;37.50;100636.19;10282198;28;20584;-63
2023/06/04 07:29:05;;;;;;;1.42;0.50;;;;;;;19.64;37.67;100637.34;10279727;28;20430;-60
2023/06/04 07:34:07;;;;;;;1.65;0.50;;;;;;;19.85;37.38;100636.91;10284316;28;20060;-61
2023/06/04 07:39:08;;;;;;;3.00;0.43;;;;;;;19.98;37.18;100631.25;10287048;28;20058;-60
2023/06/04 07:44:09;;;;;;;1.42;0.50;;;;;;;20.10;37.34;100630.44;10266741;28;20043;-61
2023/06/04 07:49:11;;;;;;;4.43;0.50;;;;;;;20.35;36.84;100628.38;10293171;28;20043;-60
2023/06/04 07:54:13;;;;;;;1.17;0.40;;;;;;;20.58;36.40;100646.72;10282539;28;20047;-61
2023/06/04 07:59:15;;;;;;;2.92;0.50;;;;;;;20.72;35.77;100641.09;10284028;28;20521;-61
2023/06/04 08:04:17;;;;;;;1.42;0.40;;;;;;;20.80;35.61;100638.00;10286189;28;20058;-62
2023/06/04 08:09:19;;;;;;;0.90;0.30;;;;;;;21.08;35.64;100628.25;10283663;28;20055;-60
2023/06/04 08:14:22;;;;;;;1.42;0.43;;;;;;;21.26;34.14;100627.28;10292152;28;20046;-61
2023/06/04 08:19:23;;;;;;;2.25;0.43;;;;;;;21.42;33.54;100628.44;10285739;28;20450;-60
2023/06/04 08:24:25;;;;;;;2.85;0.40;;;;;;;21.57;33.30;100628.78;10287925;28;20394;-61
2023/06/04 08:29:27;;;;;;;2.20;0.30;;;;;;;21.76;32.76;100627.56;10288257;28;20051;-61
2023/06/04 08:34:28;;;;;;;1.85;0.65;;;;;;;21.96;32.35;100629.84;10287458;28;20047;-60
2023/06/04 08:39:30;;;;;;;1.35;0.32;;;;;;;22.11;32.02;100634.75;10286528;28;20069;-61
2023/06/04 08:44:31;;;;;;;1.50;0.43;;;;;;;22.31;31.67;100625.28;10283647;28;20057;-61
2023/06/04 08:49:36;;;;;;;0.88;0.30;;;;;;;22.58;30.88;100625.47;10284049;28;20042;-62
2023/06/04 08:54:38;;;;;;;0.73;0.30;;;;;;;22.74;31.03;100632.84;10283328;28;20055;-61
2023/06/04 08:59:39;;;;;;;0.77;0.40;;;;;;;22.91;30.51;100638.34;10290835;28;20061;-60
2023/06/04 09:04:42;;;;;;;1.05;0.40;;;;;;;23.14;29.93;100628.25;10280338;28;20039;-61
2023/06/04 09:09:46;;;;;;;0.85;0.30;;;;;;;23.25;29.74;100635.56;10288350;28;20042;-58
2023/06/04 09:14:55;;;;;;;4.72;0.98;;;;;;;23.44;29.68;100643.47;10284926;28;20071;-59
2023/06/04 09:19:56;;;;;;;1.30;0.43;;;;;;;23.63;29.77;100642.06;10284688;28;20047;-62
2023/06/04 09:24:58;;;;;;;0.70;0.38;;;;;;;23.83;29.68;100652.50;10283445;28;20070;-62
2023/06/04 09:30:00;;;;;;;1.65;0.95;;;;;;;24.06;29.15;100647.81;10287062;28;20043;-58
2023/06/04 09:35:28;;;;;;;0.65;0.38;;;;;;;24.21;28.96;100642.50;10287523;28;20045;-58
2023/06/04 09:40:37;;;;;;;1.10;0.35;;;;;;;24.33;28.82;100640.41;10287496;28;20047;-58
2023/06/04 09:45:39;;;;;;;1.52;0.40;;;;;;;24.49;28.34;100633.13;10272286;28;20050;-65
2023/06/04 09:50:41;;;;;;;2.20;0.40;;;;;;;24.72;28.41;100631.97;10267600;28;20075;-71
2023/06/04 09:55:43;;;;;;;2.38;0.30;;;;;;;25.01;27.76;100633.53;10281076;28;20493;-68
2023/06/04 10:00:46;;;;;;;2.45;0.30;;;;;;;25.03;26.70;100621.16;10271762;28;20051;-67
2023/06/04 10:05:47;;;;;;;5.25;0.50;;;;;;;25.24;26.94;100622.16;10285324;28;20046;-67
2023/06/04 10:10:55;;;;;;;0.50;0.30;;;;;;;25.40;26.55;100603.78;10285744;28;20073;-66
2023/06/04 10:15:58;;;;;;;1.77;0.50;;;;;;;25.65;25.52;100607.72;10278724;28;20401;-67
2023/06/04 10:21:00;;;;;;;0.70;0.35;;;;;;;25.79;24.99;100617.13;10278515;28;20105;-65
2023/06/04 10:26:02;;;;;;;2.97;0.40;;;;;;;26.08;24.34;100611.97;10286364;28;20039;-65
2023/06/04 10:31:03;;;;;;;2.45;0.40;;;;;;;26.27;23.77;100609.53;10283819;28;20054;-68
2023/06/04 10:36:21;;;;;;;0.63;0.30;;;;;;;26.45;23.15;100601.81;10288747;28;20050;-68
2023/06/04 10:41:24;;;;;;;0.45;0.30;;;;;;;26.60;22.51;100606.50;10281771;28;20142;-66
2023/06/04 10:46:43;;;;;;;1.38;0.40;;;;;;;26.71;22.77;100609.00;10287080;28;20042;-64
2023/06/04 10:51:44;;;;;;;5.97;0.30;;;;;;;26.93;22.57;100609.78;10292512;28;20133;-66
2023/06/04 10:56:46;;;;;;;1.85;0.30;;;;;;;26.98;22.42;100604.28;10292866;28;20048;-65
2023/06/04 11:01:47;;;;;;;2.80;0.35;;;;;;;27.12;22.89;100597.06;10285124;28;20773;-66
2023/06/04 11:07:09;;;;;;;1.10;0.20;;;;;;;27.22;22.81;100593.44;10290839;28;20668;-67
2023/06/04 11:12:11;;;;;;;0.82;0.38;;;;;;;27.30;21.92;100601.97;10292565;28;20171;-69
2023/06/04 11:17:14;;;;;;;0.80;0.30;;;;;;;27.42;22.21;100592.56;10290325;28;20082;-64
2023/06/04 11:22:16;;;;;;;2.03;0.40;;;;;;;27.63;21.48;100598.81;10291713;28;20050;-65
2023/06/04 11:27:17;;;;;;;1.15;0.45;;;;;;;27.79;21.45;100594.84;10287349;28;20654;-65
2023/06/04 11:32:36;;;;;;;0.85;0.30;;;;;;;28.13;21.02;100596.88;10286166;28;20043;-65
2023/06/04 11:37:38;;;;;;;2.92;0.30;;;;;;;28.17;20.43;100592.41;10285724;28;20054;-66
2023/06/04 11:42:43;;;;;;;2.20;0.20;;;;;;;28.37;20.99;100585.06;10269542;28;20526;-67
2023/06/04 11:47:48;;;;;;;2.45;0.30;;;;;;;28.22;20.35;100577.72;10287188;28;20156;-65
2023/06/04 11:52:52;;;;;;;0.45;0.30;;;;;;;28.33;20.72;100578.47;10289978;28;20065;-61
2023/06/04 11:57:54;;;;;;;0.50;0.30;;;;;;;28.82;19.71;100583.03;10282817;28;20070;-60
2023/06/04 12:02:56;;;;;;;1.05;0.30;;;;;;;28.97;20.00;100574.56;10285488;28;20498;-60
2023/06/04 12:08:10;;;;;;;1.13;0.30;;;;;;;29.03;19.28;100569.78;10282170;28;20050;-61
2023/06/04 12:13:12;;;;;;;0.75;0.30;;;;;;;29.26;19.47;100563.41;10285200;28;20498;-61
2023/06/04 12:18:23;;;;;;;2.17;0.40;;;;;;;29.55;19.58;100556.16;10289713;28;20093;-61
2023/06/04 12:23:26;;;;;;;1.00;0.40;;;;;;;29.75;18.64;100550.31;10285123;28;20050;-61
2023/06/04 12:28:28;;;;;;;3.42;0.50;;;;;;;29.91;18.11;100562.00;10284026;28;20090;-63
2023/06/04 12:33:29;;;;;;;1.67;0.40;;;;;;;30.22;18.82;100556.78;10282894;28;20087;-64
2023/06/04 12:38:30;;;;;;;2.25;0.40;;;;;;;30.27;18.62;100552.28;10284140;28;20058;-62
2023/06/04 12:43:34;;;;;;;1.65;0.60;;;;;;;30.79;17.58;100547.50;10272278;28;20585;-62
2023/06/04 12:48:35;;;;;;;1.00;0.50;;;;;;;30.88;17.46;100559.50;10282520;28;20042;-62
2023/06/04 12:53:41;;;;;;;0.45;0.40;;;;;;;30.03;17.63;100553.22;10286718;28;20054;-62
2023/06/04 12:58:42;;;;;;;;;;;;;;;30.48;17.66;100539.72;10278992;28;20061;-62
2023/06/04 13:03:44;;;;;;;0.98;0.30;;;;;;;30.81;17.41;100536.91;10287720;28;19929;-62
2023/06/04 13:08:45;;;;;;;1.92;0.40;;;;;;;31.36;17.31;100536.91;10283870;28;20042;-63
2023/06/04 13:13:47;;;;;;;2.60;0.30;;;;;;;31.71;17.12;100522.53;10284874;28;20045;-62
2023/06/04 13:18:49;;;;;;;1.10;0.25;;;;;;;31.71;16.63;100531.69;10280342;28;20059;-62
2023/06/04 13:23:50;;;;;;;1.27;0.30;;;;;;;31.90;16.46;100530.69;10281011;28;20062;-63
2023/06/04 13:28:52;;;;;;;0.95;0.30;;;;;;;32.11;16.66;100523.53;10282764;28;20054;-62
2023/06/04 13:33:53;;;;;;;0.85;0.35;;;;;;;32.51;16.41;100525.56;10283820;28;20137;-62
2023/06/04 13:38:55;;;;;;;0.55;0.30;;;;;;;32.84;16.46;100523.28;10282664;28;20076;-62
2023/06/04 13:43:56;;;;;;;3.13;0.40;;;;;;;33.04;15.72;100523.81;10287043;28;20051;-63
2023/06/04 13:48:57;;;;;;;0.50;0.40;;;;;;;32.74;15.49;100526.34;10284909;28;20058;-62
2023/06/04 13:53:59;;;;;;;0.68;0.40;;;;;;;32.77;15.63;100514.56;10286727;28;20042;-63
2023/06/04 13:59:00;;;;;;;0.88;0.40;;;;;;;32.80;16.13;100511.13;10279608;28;20047;-63
2023/06/04 14:04:06;;;;;;;0.60;0.30;;;;;;;32.80;15.83;100495.25;10294640;28;20466;-61
2023/06/04 14:09:09;;;;;;;1.50;0.38;;;;;;;32.56;16.05;100492.84;10276580;28;20058;-62
2023/06/04 14:14:10;;;;;;;3.50;0.30;;;;;;;32.37;16.06;100498.63;10271068;28;20086;-62
2023/06/04 14:19:12;;;;;;;1.17;0.40;;;;;;;32.62;15.73;100487.97;10291470;28;20042;-61
2023/06/04 14:24:13;;;;;;;2.72;0.60;;;;;;;33.22;15.25;100486.53;10291040;28;20050;-62
2023/06/04 14:29:15;;;;;;;2.15;0.50;;;;;;;33.03;15.35;100491.53;10295583;28;20054;-61
2023/06/04 14:34:16;;;;;;;0.80;0.40;;;;;;;33.00;15.34;100491.06;10289992;28;20446;-61
2023/06/04 14:39:18;;;;;;;3.38;0.50;;;;;;;33.37;14.93;100482.44;10274364;28;20049;-61
2023/06/04 14:44:23;;;;;;;4.68;1.08;;;;;;;33.54;14.93;100467.69;10290061;28;20457;-61
2023/06/04 14:49:24;;;;;;;1.52;0.50;;;;;;;33.42;15.00;100471.13;10291948;28;20043;-61
2023/06/04 14:54:26;;;;;;;0.70;0.60;;;;;;;33.76;14.78;100453.59;10292095;28;20271;-61
2023/06/04 14:59:28;;;;;;;2.35;0.70;;;;;;;34.06;14.73;100453.69;10288218;28;20410;-63
2023/06/04 15:04:29;;;;;;;1.70;0.70;;;;;;;34.03;14.89;100456.34;10270945;28;20049;-61
2023/06/04 15:09:30;;;;;;;1.10;0.80;;;;;;;33.86;14.92;100462.78;10287337;28;20058;-63
2023/06/04 15:14:32;;;;;;;2.67;1.30;;;;;;;34.10;14.62;100451.06;10285977;28;20048;-62
2023/06/04 15:19:33;;;;;;;1.73;0.80;;;;;;;34.07;14.73;100457.31;10270112;28;20050;-64
2023/06/04 15:24:35;;;;;;;4.05;0.55;;;;;;;33.99;14.46;100453.41;10288589;28;20055;-63
2023/06/04 15:29:36;;;;;;;2.33;0.70;;;;;;;34.07;14.09;100454.53;10287260;28;20715;-62
2023/06/04 15:34:38;;;;;;;1.45;0.90;;;;;;;34.30;14.80;100443.97;10295199;28;20038;-63
2023/06/04 15:39:40;;;;;;;1.40;0.73;;;;;;;34.49;14.59;100444.38;10288677;28;20074;-63
2023/06/04 15:44:41;;;;;;;1.20;0.90;;;;;;;34.32;14.33;100434.13;10286387;28;20465;-64
2023/06/04 15:49:43;;;;;;;3.63;1.08;;;;;;;34.09;14.33;100453.03;10289104;28;20046;-61
2023/06/04 15:54:45;;;;;;;1.52;1.10;;;;;;;34.27;14.48;100434.31;10291493;28;20058;-60
2023/06/04 15:59:47;;;;;;;1.30;1.08;;;;;;;34.36;14.91;100440.69;10284653;28;20066;-60
2023/06/04 16:04:49;;;;;;;3.78;2.05;;;;;;;34.12;14.30;100432.03;10283782;28;20039;-61
2023/06/04 16:09:51;;;;;;;4.72;1.40;;;;;;;33.77;14.84;100430.16;10291195;28;20089;-61
2023/06/04 16:14:52;;;;;;;1.52;1.17;;;;;;;34.02;14.62;100430.41;10286772;28;20055;-61
2023/06/04 16:19:54;;;;;;;1.42;1.10;;;;;;;34.32;14.67;100422.97;10285867;28;20484;-61
2023/06/04 16:24:55;;;;;;;1.27;1.00;;;;;;;34.47;14.78;100418.78;10293071;28;20073;-61
2023/06/04 16:29:57;;;;;;;1.20;0.77;;;;;;;34.24;14.48;100422.97;10282685;28;20046;-63
2023/06/04 16:35:01;;;;;;;1.17;0.70;;;;;;;33.93;15.10;100422.06;10284125;28;20494;-66
2023/06/04 16:40:04;;;;;;;6.10;1.92;;;;;;;34.19;14.56;100415.63;10264195;28;20472;-66
2023/06/04 16:45:06;;;;;;;2.15;0.60;;;;;;;34.13;14.48;100416.94;10288338;28;20130;-66
2023/06/04 16:50:09;;;;;;;1.83;0.55;;;;;;;34.18;14.29;100413.97;10289729;28;20042;-66
2023/06/04 16:55:10;;;;;;;3.47;0.70;;;;;;;34.04;14.73;100422.53;10282078;28;20057;-66
2023/06/04 17:00:12;;;;;;;2.83;0.98;;;;;;;34.07;14.85;100416.28;10285546;28;20047;-66
2023/06/04 17:05:27;;;;;;;1.48;0.60;;;;;;;33.93;14.58;100421.25;10281634;28;20116;-66
2023/06/04 17:10:31;;;;;;;3.35;0.65;;;;;;;34.02;14.92;100419.25;10291800;28;20042;-67
2023/06/04 17:15:33;;;;;;;2.42;0.73;;;;;;;34.00;14.31;100429.91;10284333;28;20053;-65
2023/06/04 17:20:34;;;;;;;2.50;0.57;;;;;;;33.86;14.55;100429.31;10286395;28;20055;-65
2023/06/04 17:25:36;;;;;;;2.85;1.27;;;;;;;33.71;14.42;100427.84;10283576;28;20042;-67
2023/06/04 17:30:37;;;;;;;2.15;0.68;;;;;;;33.44;14.66;100431.78;10279011;28;20050;-66
2023/06/04 17:35:39;;;;;;;3.85;0.60;;;;;;;33.68;14.74;100429.34;10282512;28;20041;-65
2023/06/04 17:40:40;;;;;;;4.35;1.30;;;;;;;33.52;14.79;100436.53;10286328;28;20494;-67
2023/06/04 17:45:42;;;;;;;1.30;0.50;;;;;;;33.11;14.97;100437.84;10268187;28;20047;-67
2023/06/04 17:50:44;;;;;;;1.27;0.50;;;;;;;33.00;15.03;100440.91;10283726;28;20390;-66
2023/06/04 17:55:45;;;;;;;0.85;0.40;;;;;;;32.97;15.61;100435.97;10279382;28;20054;-67
2023/06/04 18:00:46;;;;;;;2.60;0.50;;;;;;;32.84;15.66;100447.25;10282513;28;20046;-65
2023/06/04 18:05:48;;;;;;;1.58;0.50;;;;;;;32.77;15.63;100444.94;10278007;28;20031;-66
2023/06/04 18:10:49;;;;;;;1.40;0.50;;;;;;;32.33;16.04;100444.78;10288910;28;20043;-67
2023/06/04 18:15:51;;;;;;;9.07;1.63;;;;;;;31.27;16.59;100449.88;10286863;28;20057;-67
2023/06/04 18:20:52;;;;;;;1.13;0.50;;;;;;;30.14;17.23;100452.13;10283800;28;20051;-66
2023/06/04 18:25:54;;;;;;;1.05;0.50;;;;;;;29.32;17.90;100450.63;10287312;28;20047;-65
2023/06/04 18:30:55;;;;;;;1.05;0.50;;;;;;;28.65;18.64;100457.03;10279966;28;20053;-66
2023/06/04 18:35:57;;;;;;;3.10;0.40;;;;;;;28.03;19.63;100469.81;10282679;28;20043;-66
2023/06/04 18:40:58;;;;;;;1.70;0.57;;;;;;;27.48;20.31;100467.97;10280760;28;20055;-66
2023/06/04 18:45:59;;;;;;;0.73;0.50;;;;;;;26.91;21.12;100463.84;10280968;28;20512;-66
2023/06/04 18:51:01;;;;;;;2.22;0.40;;;;;;;26.46;21.36;100462.84;10289499;28;21322;-65
2023/06/04 18:56:02;;;;;;;1.52;0.82;;;;;;;26.02;22.40;100466.22;10290926;28;20046;-66
2023/06/04 19:01:04;;;;;;;1.48;0.40;;;;;;;25.63;22.52;100469.47;10272927;28;20070;-67
2023/06/04 19:06:05;;;;;;;1.15;0.35;;;;;;;25.35;23.46;100468.06;10292017;28;20042;-65
2023/06/04 19:11:07;;;;;;;2.38;0.50;;;;;;;25.00;23.76;100473.19;10288663;28;20423;-66
2023/06/04 19:16:11;;;;;;;2.78;0.50;;;;;;;24.72;24.28;100472.50;10285659;28;20050;-64
2023/06/04 19:21:13;;;;;;;0.80;0.50;;;;;;;24.47;24.94;100486.06;10286732;28;20046;-66
2023/06/04 19:26:15;;;;;;;1.05;0.43;;;;;;;24.15;25.24;100500.66;10291150;28;20042;-66
2023/06/04 19:31:16;;;;;;;1.17;0.40;;;;;;;23.87;25.48;100501.81;10279501;28;20114;-66
2023/06/04 19:36:18;;;;;;;0.70;0.40;;;;;;;23.62;25.56;100505.09;10265658;28;20058;-66
2023/06/04 19:41:20;;;;;;;1.08;0.45;;;;;;;23.43;26.16;100518.34;10284968;28;20049;-67
2023/06/04 19:46:22;;;;;;;1.15;0.50;;;;;;;23.22;26.47;100520.84;10288993;28;20058;-66
2023/06/04 19:51:24;;;;;;;1.17;0.45;;;;;;;23.04;26.65;100513.78;10287384;28;20513;-65
2023/06/04 19:56:28;;;;;;;3.30;0.50;;;;;;;22.85;26.93;100515.97;10286696;28;20482;-65
2023/06/04 20:01:29;;;;;;;2.42;0.70;;;;;;;22.61;26.90;100520.84;10284392;28;20057;-65
2023/06/04 20:06:32;;;;;;;0.77;0.50;;;;;;;22.44;26.97;100536.47;10286792;28;20046;-66
2023/06/04 20:11:33;;;;;;;3.28;0.50;;;;;;;22.23;27.18;100530.63;10272058;28;20047;-65
2023/06/04 20:16:35;;;;;;;0.88;0.35;;;;;;;22.09;27.17;100535.59;10283788;28;20043;-67
2023/06/04 20:21:36;;;;;;;2.10;0.40;;;;;;;21.92;27.39;100535.59;10286972;28;20677;-67
2023/06/04 20:26:38;;;;;;;1.00;0.50;;;;;;;21.83;27.52;100533.53;10282491;28;20050;-65
2023/06/04 20:31:40;;;;;;;2.22;0.45;;;;;;;21.64;27.54;100541.91;10280964;28;20050;-66
2023/06/04 20:36:41;;;;;;;1.23;0.65;;;;;;;21.52;27.38;100541.97;10282235;28;20051;-67
2023/06/04 20:41:43;;;;;;;2.05;0.52;;;;;;;21.43;27.98;100554.38;10283432;28;20055;-67
2023/06/04 20:46:44;;;;;;;1.77;0.93;;;;;;;21.30;27.52;100549.16;10278416;28;20063;-67
2023/06/04 20:51:46;;;;;;;2.03;0.40;;;;;;;21.27;27.71;100552.38;10287170;28;20054;-66
2023/06/04 20:56:47;;;;;;;3.10;0.40;;;;;;;21.14;28.24;100545.28;10285046;28;20035;-67
2023/06/04 21:01:49;;;;;;;0.38;0.30;;;;;;;21.03;28.12;100555.19;10283350;28;20046;-63
2023/06/04 21:06:50;;;;;;;1.15;0.50;;;;;;;20.93;27.96;100554.94;10285160;28;20149;-67
2023/06/04 21:11:52;;;;;;;0.98;0.32;;;;;;;20.85;28.05;100558.03;10279540;28;20046;-66
2023/06/04 21:16:53;;;;;;;1.10;0.40;;;;;;;20.74;28.18;100560.53;10284566;28;20061;-67
2023/06/04 21:21:55;;;;;;;2.33;0.47;;;;;;;20.70;28.51;100564.00;10278811;28;20051;-67
2023/06/04 21:26:56;;;;;;;3.45;0.30;;;;;;;20.59;28.47;100560.19;10280143;28;20051;-67
2023/06/04 21:31:57;;;;;;;0.68;0.30;;;;;;;20.51;28.69;100557.78;10265754;28;20090;-66
2023/06/04 21:36:59;;;;;;;1.88;1.20;;;;;;;20.44;28.89;100559.78;10283211;28;20079;-67
2023/06/04 21:42:01;;;;;;;0.68;0.30;;;;;;;20.39;29.05;100574.16;10284590;28;20050;-67
2023/06/04 21:47:03;;;;;;;0.55;0.35;;;;;;;20.32;29.01;100573.41;10284955;28;20046;-66
2023/06/04 21:52:04;;;;;;;1.13;0.40;;;;;;;20.26;29.46;100575.22;10265517;28;20043;-67
2023/06/04 21:57:17;;;;;;;2.55;0.40;;;;;;;20.16;29.61;100575.78;10279020;28;20573;-65
2023/06/04 22:02:19;;;;;;;1.23;0.70;;;;;;;20.10;29.96;100578.59;10278068;28;20057;-65
2023/06/04 22:07:20;;;;;;;1.08;0.30;;;;;;;20.04;30.21;100574.91;10267577;28;20047;-66
2023/06/04 22:12:22;;;;;;;0.80;0.50;;;;;;;19.94;30.68;100580.09;10279414;28;20039;-65
2023/06/04 22:17:23;;;;;;;1.88;0.45;;;;;;;19.76;31.05;100575.53;10279922;28;20066;-65
2023/06/04 22:22:25;;;;;;;1.00;0.47;;;;;;;19.66;31.14;100576.03;10281959;28;20548;-65
2023/06/04 22:27:26;;;;;;;1.38;0.63;;;;;;;19.52;31.64;100575.38;10287234;28;20122;-67
2023/06/04 22:32:28;;;;;;;1.13;0.50;;;;;;;19.35;31.87;100579.78;10270887;28;20039;-66
2023/06/04 22:37:29;;;;;;;3.28;0.50;;;;;;;19.23;32.30;100574.28;10286518;28;20425;-67
2023/06/04 22:42:31;;;;;;;0.93;0.40;;;;;;;19.11;32.58;100587.00;10286143;28;20038;-68
2023/06/04 22:47:32;;;;;;;1.02;0.40;;;;;;;18.96;33.16;100574.59;10286836;28;20878;-66
2023/06/04 22:52:34;;;;;;;3.05;0.30;;;;;;;18.79;33.78;100574.31;10291620;28;20520;-67
2023/06/04 22:57:37;;;;;;;2.40;0.50;;;;;;;18.67;34.51;100572.56;10290552;28;20065;-68
2023/06/04 23:02:38;;;;;;;0.80;0.35;;;;;;;18.53;35.01;100580.00;10290046;28;20434;-70
2023/06/04 23:07:40;;;;;;;3.17;0.43;;;;;;;18.31;35.51;100574.13;10291123;28;20035;-68